Time;durP1;ratioP1;P1;durP2;ratioP2;P2;SDS_P1;SDS_P2;PMS_P1;PMS_P2;Temp;Humidity;BMP_temperature;BMP_pressure;BME280_temperature;BME280_humidity;BME280_pressure;Samples;Min_cycle;Max_cycle;Signal;HPM_P1;HPM_P2
2022/05/08 00:00:07;;;;;;;;;;;;;;;;;;1026764;28;3863;-47
2022/05/08 00:00:47;;;;;;;;;;;;;;;;;;1034404;28;4084;-45
2022/05/08 00:01:17;;;;;;;;;;;;;;;;;;1036616;28;3420;-48
2022/05/08 00:01:49;;;;;;;;;;;;;;;;;;1044551;28;4037;-48
2022/05/08 00:02:20;;;;;;;;;;;;;;;;;;1038487;28;3545;-48
2022/05/08 00:02:54;;;;;;;;;;;;;;;;;;1031936;28;3925;-46
2022/05/08 00:03:25;;;;;;;;;;;;;;;;;;1033123;28;3266;-44
2022/05/08 00:03:56;;;;;;;;;;;;;;;;;;1039675;28;3842;-46
2022/05/08 00:04:27;;;;;;;;;;;;;;;;;;1043000;28;3635;-48
2022/05/08 00:04:57;;;;;;;;;;;;;;;;;;1043008;28;4208;-45
2022/05/08 00:05:28;;;;;;;;;;;;;;;;;;1044541;28;3926;-47
2022/05/08 00:06:02;;;;;;;;;;;;;;;;;;1035837;28;3884;-45
2022/05/08 00:06:33;;;;;;;;;;;;;;;;;;1035995;28;3724;-46
2022/05/08 00:07:05;;;;;;;;;;;;;;;;;;1034446;28;3912;-46
2022/05/08 00:07:37;;;;;;;;;;;;;;;;;;1033594;28;3901;-47
2022/05/08 00:08:09;;;;;;;;;;;;;;;;;;1026917;28;4095;-47
2022/05/08 00:08:40;;;;;;;;;;;;;;;;;;1027955;28;3697;-45
2022/05/08 00:09:12;;;;;;;;;;;;;;;;;;1017800;28;3907;-49
2022/05/08 00:09:44;;;;;;;;;;;;;;;;;;1023334;28;3127;-46
2022/05/08 00:10:15;;;;;;;;;;;;;;;;;;1023359;28;3865;-49
2022/05/08 00:10:46;;;;;;;;;;;;;;;;;;1023745;28;3892;-47
2022/05/08 00:11:17;;;;;;;;;;;;;;;;;;1020266;28;3950;-50
2022/05/08 00:11:48;;;;;;;;;;;;;;;;;;1027537;28;3971;-45
2022/05/08 00:12:19;;;;;;;;;;;;;;;;;;1028124;28;3701;-51
2022/05/08 00:12:50;;;;;;;;;;;;;;;;;;1026812;28;3899;-48
2022/05/08 00:13:30;;;;;;;;;;;;;;;;;;1030861;28;3904;-45
2022/05/08 00:14:01;;;;;;;;;;;;;;;;;;1033495;28;3915;-47
2022/05/08 00:14:32;;;;;;;;;;;;;;;;;;1029989;28;3885;-48
2022/05/08 00:15:04;;;;;;;;;;;;;;;;;;1031337;28;3897;-46
2022/05/08 00:15:35;;;;;;;;;;;;;;;;;;1032029;28;3128;-50
2022/05/08 00:16:06;;;;;;;;;;;;;;;;;;1032175;28;3891;-47
2022/05/08 00:16:37;;;;;;;;;;;;;;;;;;1032125;28;4418;-49
2022/05/08 00:17:13;;;;;;;;;;;;;;;;;;1030682;28;3892;-47
2022/05/08 00:17:44;;;;;;;;;;;;;;;;;;1028129;28;3949;-50
2022/05/08 00:18:23;;;;;;;;;;;;;;;;;;1023570;28;3777;-49
2022/05/08 00:19:00;;;;;;;;;;;;;;;;;;1028059;28;4098;-48
2022/05/08 00:19:38;;;;;;;;;;;;;;;;;;1033771;28;2964;-48
2022/05/08 00:20:10;;;;;;;;;;;;;;;;;;1039274;28;3881;-45
2022/05/08 00:20:41;;;;;;;;;;;;;;;;;;1034017;28;3694;-49
2022/05/08 00:21:13;;;;;;;;;;;;;;;;;;1030788;28;3967;-45
2022/05/08 00:21:45;;;;;;;;;;;;;;;;;;1028866;28;4355;-47
2022/05/08 00:22:16;;;;;;;;;;;;;;;;;;1025434;28;3648;-48
2022/05/08 00:22:47;;;;;;;;;;;;;;;;;;1032997;28;3982;-49
2022/05/08 00:23:18;;;;;;;;;;;;;;;;;;1039452;28;2984;-45
2022/05/08 00:23:49;;;;;;;;;;;;;;;;;;1033920;28;4052;-46
2022/05/08 00:24:20;;;;;;;;;;;;;;;;;;1034219;28;3410;-49
2022/05/08 00:24:51;;;;;;;;;;;;;;;;;;1036842;28;4009;-48
2022/05/08 00:25:22;;;;;;;;;;;;;;;;;;1037694;28;4063;-47
2022/05/08 00:25:55;;;;;;;;;;;;;;;;;;1032040;28;3942;-47
2022/05/08 00:26:26;;;;;;;;;;;;;;;;;;1038647;28;4103;-48
2022/05/08 00:26:56;;;;;;;;;;;;;;;;;;1033725;28;3915;-47
2022/05/08 00:27:27;;;;;;;;;;;;;;;;;;1035629;28;3683;-46
2022/05/08 00:27:58;;;;;;;;;;;;;;;;;;1038720;28;3907;-49
2022/05/08 00:28:29;;;;;;;;;;;;;;;;;;1037101;28;4015;-49
2022/05/08 00:29:01;;;;;;;;;;;;;;;;;;1037959;28;3893;-48
2022/05/08 00:29:33;;;;;;;;;;;;;;;;;;1040489;28;3426;-49
2022/05/08 00:30:04;;;;;;;;;;;;;;;;;;1029786;28;3929;-49
2022/05/08 00:30:36;;;;;;;;;;;;;;;;;;1029953;28;3888;-48
2022/05/08 00:31:10;;;;;;;;;;;;;;;;;;1028919;28;3859;-50
2022/05/08 00:31:42;;;;;;;;;;;;;;;;;;1024110;28;3713;-48
2022/05/08 00:32:13;;;;;;;;;;;;;;;;;;1033040;28;3950;-46
2022/05/08 00:32:45;;;;;;;;;;;;;;;;;;1039293;28;3833;-49
2022/05/08 00:33:16;;;;;;;;;;;;;;;;;;1031813;28;3832;-49
2022/05/08 00:33:47;;;;;;;;;;;;;;;;;;1028434;28;3959;-49
2022/05/08 00:34:18;;;;;;;;;;;;;;;;;;1031552;28;3812;-46
2022/05/08 00:34:50;;;;;;;;;;;;;;;;;;1027082;28;3889;-48
2022/05/08 00:35:20;;;;;;;;;;;;;;;;;;1031567;28;2801;-47
2022/05/08 00:35:52;;;;;;;;;;;;;;;;;;1031263;28;4033;-46
2022/05/08 00:36:23;;;;;;;;;;;;;;;;;;1029742;28;3884;-46
2022/05/08 00:36:54;;;;;;;;;;;;;;;;;;1034201;28;3808;-44
2022/05/08 00:37:25;;;;;;;;;;;;;;;;;;1031769;28;3960;-48
2022/05/08 00:37:56;;;;;;;;;;;;;;;;;;1029181;28;3899;-47
2022/05/08 00:38:28;;;;;;;;;;;;;;;;;;1029538;28;3114;-47
2022/05/08 00:38:59;;;;;;;;;;;;;;;;;;1031413;28;4022;-48
2022/05/08 00:39:30;;;;;;;;;;;;;;;;;;1031507;28;3873;-49
2022/05/08 00:40:01;;;;;;;;;;;;;;;;;;1032637;28;4895;-48
2022/05/08 00:40:35;;;;;;;;;;;;;;;;;;1032507;28;4229;-46
2022/05/08 00:41:12;;;;;;;;;;;;;;;;;;1032114;28;3941;-50
2022/05/08 00:41:42;;;;;;;;;;;;;;;;;;1038681;28;4049;-47
2022/05/08 00:42:13;;;;;;;;;;;;;;;;;;1032550;28;4175;-48
2022/05/08 00:42:44;;;;;;;;;;;;;;;;;;1031761;28;3767;-48
2022/05/08 00:43:24;;;;;;;;;;;;;;;;;;1035612;28;3797;-46
2022/05/08 00:43:55;;;;;;;;;;;;;;;;;;1039391;28;4283;-46
2022/05/08 00:44:27;;;;;;;;;;;;;;;;;;1039299;28;3883;-51
2022/05/08 00:44:58;;;;;;;;;;;;;;;;;;1038012;28;3888;-47
2022/05/08 00:45:29;;;;;;;;;;;;;;;;;;1035898;28;3790;-49
2022/05/08 00:46:02;;;;;;;;;;;;;;;;;;1030163;28;3935;-48
2022/05/08 00:46:33;;;;;;;;;;;;;;;;;;1032744;28;3973;-52
2022/05/08 00:47:04;;;;;;;;;;;;;;;;;;1029063;28;3878;-48
2022/05/08 00:47:36;;;;;;;;;;;;;;;;;;1031782;28;4004;-46
2022/05/08 00:48:07;;;;;;;;;;;;;;;;;;1030484;28;3916;-45
2022/05/08 00:48:39;;;;;;;;;;;;;;;;;;1028041;28;3233;-49
2022/05/08 00:49:10;;;;;;;;;;;;;;;;;;1031005;28;3854;-47
2022/05/08 00:49:41;;;;;;;;;;;;;;;;;;1037033;28;3991;-46
2022/05/08 00:50:13;;;;;;;;;;;;;;;;;;1027422;28;3840;-49
2022/05/08 00:50:43;;;;;;;;;;;;;;;;;;1030612;28;3155;-47
2022/05/08 00:51:15;;;;;;;;;;;;;;;;;;1033693;28;3780;-51
2022/05/08 00:51:49;;;;;;;;;;;;;;;;;;1026788;28;3918;-50
2022/05/08 00:52:20;;;;;;;;;;;;;;;;;;1033229;28;1470;-48
2022/05/08 00:52:51;;;;;;;;;;;;;;;;;;1025243;28;3906;-51
2022/05/08 00:53:22;;;;;;;;;;;;;;;;;;1029255;28;3542;-46
2022/05/08 00:53:54;;;;;;;;;;;;;;;;;;1033651;28;3899;-50
2022/05/08 00:54:26;;;;;;;;;;;;;;;;;;1041778;28;1610;-49
2022/05/08 00:54:57;;;;;;;;;;;;;;;;;;1033283;28;4255;-48
2022/05/08 00:55:28;;;;;;;;;;;;;;;;;;1033623;28;2763;-48
2022/05/08 00:55:59;;;;;;;;;;;;;;;;;;1028180;28;4006;-48
2022/05/08 00:56:31;;;;;;;;;;;;;;;;;;1026086;28;3251;-49
2022/05/08 00:57:02;;;;;;;;;;;;;;;;;;1025726;28;4209;-44
2022/05/08 00:57:36;;;;;;;;;;;;;;;;;;1032684;28;2671;-47
2022/05/08 00:58:07;;;;;;;;;;;;;;;;;;1032844;28;3888;-46
2022/05/08 00:58:39;;;;;;;;;;;;;;;;;;1032524;28;3181;-47
2022/05/08 00:59:10;;;;;;;;;;;;;;;;;;1030081;28;3995;-49
2022/05/08 00:59:41;;;;;;;;;;;;;;;;;;1032599;28;3042;-47
2022/05/08 01:00:13;;;;;;;;;;;;;;;;;;1032700;28;3903;-48
2022/05/08 01:00:43;;;;;;;;;;;;;;;;;;1028305;28;3748;-47
2022/05/08 01:01:15;;;;;;;;;;;;;;;;;;1030470;28;4777;-49
2022/05/08 01:01:46;;;;;;;;;;;;;;;;;;1029922;28;3900;-49
2022/05/08 01:02:17;;;;;;;;;;;;;;;;;;1037781;28;1623;-47
2022/05/08 01:02:48;;;;;;;;;;;;;;;;;;1030967;28;3898;-48
2022/05/08 01:03:18;;;;;;;;;;;;;;;;;;1041601;28;1687;-50
2022/05/08 01:03:50;;;;;;;;;;;;;;;;;;1032075;28;4265;-45
2022/05/08 01:04:22;;;;;;;;;;;;;;;;;;1035988;28;3804;-47
2022/05/08 01:04:52;;;;;;;;;;;;;;;;;;1035745;28;3948;-47
2022/05/08 01:05:23;;;;;;;;;;;;;;;;;;1037355;28;1602;-49
2022/05/08 01:05:54;;;;;;;;;;;;;;;;;;1036621;28;3891;-48
2022/05/08 01:06:25;;;;;;;;;;;;;;;;;;1040966;28;1906;-50
2022/05/08 01:06:57;;;;;;;;;;;;;;;;;;1037323;28;4054;-51
2022/05/08 01:07:28;;;;;;;;;;;;;;;;;;1030893;28;3911;-48
2022/05/08 01:07:59;;;;;;;;;;;;;;;;;;1030750;28;4292;-47
2022/05/08 01:08:30;;;;;;;;;;;;;;;;;;1027757;28;3856;-48
2022/05/08 01:09:02;;;;;;;;;;;;;;;;;;1035052;28;4575;-45
2022/05/08 01:09:33;;;;;;;;;;;;;;;;;;1031371;28;2916;-47
2022/05/08 01:10:05;;;;;;;;;;;;;;;;;;1029736;28;3872;-48
2022/05/08 01:10:36;;;;;;;;;;;;;;;;;;1031839;28;3328;-49
2022/05/08 01:11:08;;;;;;;;;;;;;;;;;;1033764;28;3864;-49
2022/05/08 01:11:40;;;;;;;;;;;;;;;;;;1035359;28;4006;-49
2022/05/08 01:12:11;;;;;;;;;;;;;;;;;;1030830;28;3894;-46
2022/05/08 01:12:45;;;;;;;;;;;;;;;;;;1033167;28;3667;-46
2022/05/08 01:13:16;;;;;;;;;;;;;;;;;;1036376;28;3799;-48
2022/05/08 01:13:48;;;;;;;;;;;;;;;;;;1040695;28;4075;-48
2022/05/08 01:14:19;;;;;;;;;;;;;;;;;;1030372;28;3764;-46
2022/05/08 01:15:09;;;;;;;;;;;;;;;;;;1033152;28;3948;-47
2022/05/08 01:15:42;;;;;;;;;;;;;;;;;;1034890;28;4005;-48
2022/05/08 01:16:14;;;;;;;;;;;;;;;;;;1030270;28;3901;-48
2022/05/08 01:16:45;;;;;;;;;;;;;;;;;;1022053;28;3915;-47
2022/05/08 01:17:15;;;;;;;;;;;;;;;;;;1027466;28;2174;-47
2022/05/08 01:17:49;;;;;;;;;;;;;;;;;;1026923;28;3864;-48
2022/05/08 01:18:27;;;;;;;;;;;;;;;;;;1033673;28;2884;-48
2022/05/08 01:19:05;;;;;;;;;;;;;;;;;;1033490;28;3919;-48
2022/05/08 01:19:42;;;;;;;;;;;;;;;;;;1030676;28;3584;-47
2022/05/08 01:20:13;;;;;;;;;;;;;;;;;;1034759;28;4152;-50
2022/05/08 01:20:44;;;;;;;;;;;;;;;;;;1037767;28;3109;-46
2022/05/08 01:21:17;;;;;;;;;;;;;;;;;;1032119;28;3584;-47
2022/05/08 01:21:49;;;;;;;;;;;;;;;;;;1025748;28;4119;-45
2022/05/08 01:22:20;;;;;;;;;;;;;;;;;;1024514;28;4079;-49
2022/05/08 01:22:52;;;;;;;;;;;;;;;;;;1027678;28;4030;-46
2022/05/08 01:23:23;;;;;;;;;;;;;;;;;;1027234;28;2962;-51
2022/05/08 01:23:53;;;;;;;;;;;;;;;;;;1026694;28;4316;-45
2022/05/08 01:24:24;;;;;;;;;;;;;;;;;;1027968;28;2482;-48
2022/05/08 01:24:56;;;;;;;;;;;;;;;;;;1026276;28;4012;-44
2022/05/08 01:25:28;;;;;;;;;;;;;;;;;;1027069;28;3429;-45
2022/05/08 01:25:59;;;;;;;;;;;;;;;;;;1023718;28;4141;-51
2022/05/08 01:26:31;;;;;;;;;;;;;;;;;;1025087;28;3123;-46
2022/05/08 01:27:02;;;;;;;;;;;;;;;;;;1022000;28;3927;-47
2022/05/08 01:27:33;;;;;;;;;;;;;;;;;;1018534;28;3247;-48
2022/05/08 01:28:05;;;;;;;;;;;;;;;;;;1023813;28;4087;-47
2022/05/08 01:28:37;;;;;;;;;;;;;;;;;;1022909;28;3754;-46
2022/05/08 01:29:09;;;;;;;;;;;;;;;;;;1019768;28;4340;-45
2022/05/08 01:29:41;;;;;;;;;;;;;;;;;;1029057;28;2684;-45
2022/05/08 01:30:12;;;;;;;;;;;;;;;;;;1029926;28;3811;-52
2022/05/08 01:30:43;;;;;;;;;;;;;;;;;;1033005;28;2066;-48
2022/05/08 01:31:15;;;;;;;;;;;;;;;;;;1036409;28;5544;-50
2022/05/08 01:31:46;;;;;;;;;;;;;;;;;;1034166;28;3858;-46
2022/05/08 01:32:16;;;;;;;;;;;;;;;;;;1036224;28;3758;-46
2022/05/08 01:32:48;;;;;;;;;;;;;;;;;;1028746;28;3894;-45
2022/05/08 01:33:20;;;;;;;;;;;;;;;;;;1024051;28;4082;-47
2022/05/08 01:33:51;;;;;;;;;;;;;;;;;;1023311;28;3833;-49
2022/05/08 01:34:22;;;;;;;;;;;;;;;;;;1028394;28;3459;-48
2022/05/08 01:35:00;;;;;;;;;;;;;;;;;;1023064;28;4325;-46
2022/05/08 01:35:30;;;;;;;;;;;;;;;;;;1030814;28;3672;-52
2022/05/08 01:36:01;;;;;;;;;;;;;;;;;;1030861;28;3897;-51
2022/05/08 01:36:32;;;;;;;;;;;;;;;;;;1028444;28;1612;-47
2022/05/08 01:37:03;;;;;;;;;;;;;;;;;;1027316;28;3890;-47
2022/05/08 01:37:34;;;;;;;;;;;;;;;;;;1029870;28;2237;-50
2022/05/08 01:38:05;;;;;;;;;;;;;;;;;;1027666;28;3909;-49
2022/05/08 01:38:35;;;;;;;;;;;;;;;;;;1035840;28;3780;-47
2022/05/08 01:39:06;;;;;;;;;;;;;;;;;;1036155;28;4296;-48
2022/05/08 01:39:37;;;;;;;;;;;;;;;;;;1036504;28;2051;-46
2022/05/08 01:40:08;;;;;;;;;;;;;;;;;;1033341;28;4448;-45
2022/05/08 01:40:40;;;;;;;;;;;;;;;;;;1033882;28;1743;-47
2022/05/08 01:41:11;;;;;;;;;;;;;;;;;;1025663;28;3970;-48
2022/05/08 01:41:42;;;;;;;;;;;;;;;;;;1028742;28;3686;-47
2022/05/08 01:42:14;;;;;;;;;;;;;;;;;;1025062;28;3838;-49
2022/05/08 01:42:45;;;;;;;;;;;;;;;;;;1023421;28;4054;-47
2022/05/08 01:43:16;;;;;;;;;;;;;;;;;;1030357;28;4213;-48
2022/05/08 01:43:47;;;;;;;;;;;;;;;;;;1034431;28;4116;-46
2022/05/08 01:44:18;;;;;;;;;;;;;;;;;;1037584;28;2160;-45
2022/05/08 01:44:51;;;;;;;;;;;;;;;;;;1035722;28;4023;-47
2022/05/08 01:45:23;;;;;;;;;;;;;;;;;;1032872;28;1839;-48
2022/05/08 01:45:56;;;;;;;;;;;;;;;;;;1021178;28;4167;-47
2022/05/08 01:46:27;;;;;;;;;;;;;;;;;;1025081;28;4002;-46
2022/05/08 01:48:37;;;;;;;;;;;;;;;;;;1044841;28;1305;-45
2022/05/08 01:49:08;;;;;;;;;;;;;;;;;;1032333;28;3933;-49
2022/05/08 01:49:38;;;;;;;;;;;;;;;;;;1038682;28;1665;-48
2022/05/08 01:50:09;;;;;;;;;;;;;;;;;;1030224;28;3959;-48
2022/05/08 01:50:40;;;;;;;;;;;;;;;;;;1034209;28;1693;-49
2022/05/08 01:51:12;;;;;;;;;;;;;;;;;;1028215;28;4116;-47
2022/05/08 01:51:45;;;;;;;;;;;;;;;;;;1032276;28;3010;-45
2022/05/08 01:52:16;;;;;;;;;;;;;;;;;;1021545;28;3914;-51
2022/05/08 01:52:47;;;;;;;;;;;;;;;;;;1024287;28;3858;-46
2022/05/08 01:53:19;;;;;;;;;;;;;;;;;;1032797;28;4243;-49
2022/05/08 01:53:50;;;;;;;;;;;;;;;;;;1025320;28;3906;-47
2022/05/08 01:54:21;;;;;;;;;;;;;;;;;;1024694;28;2468;-47
2022/05/08 01:54:52;;;;;;;;;;;;;;;;;;1022356;28;4240;-47
2022/05/08 01:55:23;;;;;;;;;;;;;;;;;;1024742;28;2790;-48
2022/05/08 01:55:56;;;;;;;;;;;;;;;;;;1027110;28;4012;-46
2022/05/08 01:56:26;;;;;;;;;;;;;;;;;;1028946;28;3054;-47
2022/05/08 01:56:58;;;;;;;;;;;;;;;;;;1026753;28;3890;-49
2022/05/08 01:57:28;;;;;;;;;;;;;;;;;;1037912;28;2163;-48
2022/05/08 01:57:59;;;;;;;;;;;;;;;;;;1032485;28;3924;-48
2022/05/08 01:58:30;;;;;;;;;;;;;;;;;;1040121;28;3281;-48
2022/05/08 01:59:02;;;;;;;;;;;;;;;;;;1032894;28;3905;-47
2022/05/08 01:59:33;;;;;;;;;;;;;;;;;;1029031;28;3642;-47
2022/05/08 02:00:06;;;;;;;;;;;;;;;;;;1026515;28;4083;-50
2022/05/08 02:00:37;;;;;;;;;;;;;;;;;;1030784;28;3131;-48
2022/05/08 02:01:09;;;;;;;;;;;;;;;;;;1027208;28;4100;-48
2022/05/08 02:01:39;;;;;;;;;;;;;;;;;;1031692;28;3042;-46
2022/05/08 02:02:10;;;;;;;;;;;;;;;;;;1030439;28;4114;-45
2022/05/08 02:02:40;;;;;;;;;;;;;;;;;;1034472;28;1833;-47
2022/05/08 02:03:12;;;;;;;;;;;;;;;;;;1041209;28;3937;-45
2022/05/08 02:03:43;;;;;;;;;;;;;;;;;;1041668;28;2239;-47
2022/05/08 02:04:15;;;;;;;;;;;;;;;;;;1040112;28;5096;-48
2022/05/08 02:04:46;;;;;;;;;;;;;;;;;;1040791;28;4323;-47
2022/05/08 02:05:16;;;;;;;;;;;;;;;;;;1040046;28;3842;-46
2022/05/08 02:05:47;;;;;;;;;;;;;;;;;;1040182;28;4073;-45
2022/05/08 02:06:18;;;;;;;;;;;;;;;;;;1040229;28;3606;-47
2022/05/08 02:06:49;;;;;;;;;;;;;;;;;;1040738;28;4229;-47
2022/05/08 02:07:19;;;;;;;;;;;;;;;;;;1040626;28;3185;-46
2022/05/08 02:07:50;;;;;;;;;;;;;;;;;;1041884;28;4118;-49
2022/05/08 02:08:20;;;;;;;;;;;;;;;;;;1040967;28;3315;-48
2022/05/08 02:08:52;;;;;;;;;;;;;;;;;;1040923;28;3825;-47
2022/05/08 02:09:22;;;;;;;;;;;;;;;;;;1041477;28;3983;-48
2022/05/08 02:09:52;;;;;;;;;;;;;;;;;;1039363;28;3806;-48
2022/05/08 02:10:23;;;;;;;;;;;;;;;;;;1035992;28;4151;-47
2022/05/08 02:10:53;;;;;;;;;;;;;;;;;;1035589;28;4221;-46
2022/05/08 02:11:24;;;;;;;;;;;;;;;;;;1039483;28;3945;-45
2022/05/08 02:11:54;;;;;;;;;;;;;;;;;;1036838;28;3848;-47
2022/05/08 02:12:24;;;;;;;;;;;;;;;;;;1045873;28;4241;-48
2022/05/08 02:12:55;;;;;;;;;;;;;;;;;;1044109;28;4265;-47
2022/05/08 02:13:25;;;;;;;;;;;;;;;;;;1041486;28;4405;-44
2022/05/08 02:13:55;;;;;;;;;;;;;;;;;;1039153;28;3994;-49
2022/05/08 02:14:25;;;;;;;;;;;;;;;;;;1041368;28;2838;-47
2022/05/08 02:14:56;;;;;;;;;;;;;;;;;;1039742;28;3971;-48
2022/05/08 02:15:31;;;;;;;;;;;;;;;;;;1037555;28;4180;-45
2022/05/08 02:16:02;;;;;;;;;;;;;;;;;;1037388;28;3807;-45
2022/05/08 02:16:32;;;;;;;;;;;;;;;;;;1038763;28;2900;-45
2022/05/08 02:17:03;;;;;;;;;;;;;;;;;;1037012;28;3846;-47
2022/05/08 02:17:34;;;;;;;;;;;;;;;;;;1042078;28;3808;-46
2022/05/08 02:18:05;;;;;;;;;;;;;;;;;;1039584;28;4157;-47
2022/05/08 02:18:42;;;;;;;;;;;;;;;;;;1045604;28;3155;-46
2022/05/08 02:19:19;;;;;;;;;;;;;;;;;;1048658;28;3931;-46
2022/05/08 02:19:57;;;;;;;;;;;;;;;;;;1048755;28;4403;-47
2022/05/08 02:20:27;;;;;;;;;;;;;;;;;;1048181;28;4442;-47
2022/05/08 02:20:57;;;;;;;;;;;;;;;;;;1048677;28;4269;-47
2022/05/08 02:21:28;;;;;;;;;;;;;;;;;;1050707;28;1977;-44
2022/05/08 02:21:58;;;;;;;;;;;;;;;;;;1047855;28;3825;-47
2022/05/08 02:22:28;;;;;;;;;;;;;;;;;;1050373;28;1585;-48
2022/05/08 02:22:59;;;;;;;;;;;;;;;;;;1047154;28;4001;-47
2022/05/08 02:23:29;;;;;;;;;;;;;;;;;;1050638;28;1721;-48
2022/05/08 02:23:59;;;;;;;;;;;;;;;;;;1048177;28;3948;-49
2022/05/08 02:24:30;;;;;;;;;;;;;;;;;;1046281;28;1581;-44
2022/05/08 02:25:00;;;;;;;;;;;;;;;;;;1042617;28;3976;-49
2022/05/08 02:25:30;;;;;;;;;;;;;;;;;;1045329;28;3017;-44
2022/05/08 02:26:01;;;;;;;;;;;;;;;;;;1044921;28;3892;-47
2022/05/08 02:26:31;;;;;;;;;;;;;;;;;;1049287;28;2429;-45
2022/05/08 02:27:01;;;;;;;;;;;;;;;;;;1048215;28;3859;-45
2022/05/08 02:27:40;;;;;;;;;;;;;;;;;;1048229;28;4002;-45
2022/05/08 02:28:10;;;;;;;;;;;;;;;;;;1048913;28;4058;-45
2022/05/08 02:28:40;;;;;;;;;;;;;;;;;;1049580;28;2222;-47
2022/05/08 02:29:11;;;;;;;;;;;;;;;;;;1046931;28;4060;-45
2022/05/08 02:29:41;;;;;;;;;;;;;;;;;;1049090;28;4016;-47
2022/05/08 02:30:11;;;;;;;;;;;;;;;;;;1047541;28;4151;-47
2022/05/08 02:30:42;;;;;;;;;;;;;;;;;;1048189;28;2838;-48
2022/05/08 02:31:19;;;;;;;;;;;;;;;;;;1049021;28;3901;-46
2022/05/08 02:31:49;;;;;;;;;;;;;;;;;;1048723;28;3932;-49
2022/05/08 02:32:19;;;;;;;;;;;;;;;;;;1049833;28;3394;-48
2022/05/08 02:32:51;;;;;;;;;;;;;;;;;;1049049;28;4050;-49
2022/05/08 02:33:21;;;;;;;;;;;;;;;;;;1047497;28;2954;-44
2022/05/08 02:33:52;;;;;;;;;;;;;;;;;;1048740;28;4213;-46
2022/05/08 02:34:22;;;;;;;;;;;;;;;;;;1048306;28;3579;-46
2022/05/08 02:34:52;;;;;;;;;;;;;;;;;;1049459;28;4163;-47
2022/05/08 02:35:22;;;;;;;;;;;;;;;;;;1043058;28;3725;-46
2022/05/08 02:35:53;;;;;;;;;;;;;;;;;;1044651;28;4368;-45
2022/05/08 02:36:23;;;;;;;;;;;;;;;;;;1044222;28;4095;-49
2022/05/08 02:36:53;;;;;;;;;;;;;;;;;;1044334;28;3915;-45
2022/05/08 02:37:23;;;;;;;;;;;;;;;;;;1047752;28;3615;-45
2022/05/08 02:37:55;;;;;;;;;;;;;;;;;;1049306;28;4229;-46
2022/05/08 02:38:25;;;;;;;;;;;;;;;;;;1048342;28;3877;-46
2022/05/08 02:38:55;;;;;;;;;;;;;;;;;;1048896;28;3918;-46
2022/05/08 02:39:26;;;;;;;;;;;;;;;;;;1048668;28;3856;-45
2022/05/08 02:39:56;;;;;;;;;;;;;;;;;;1048533;28;4086;-47
2022/05/08 02:40:26;;;;;;;;;;;;;;;;;;1047724;28;3063;-47
2022/05/08 02:40:56;;;;;;;;;;;;;;;;;;1049584;28;3827;-48
2022/05/08 02:41:27;;;;;;;;;;;;;;;;;;1047999;28;3744;-45
2022/05/08 02:41:58;;;;;;;;;;;;;;;;;;1049965;28;3952;-46
2022/05/08 02:42:28;;;;;;;;;;;;;;;;;;1049622;28;3995;-46
2022/05/08 02:42:58;;;;;;;;;;;;;;;;;;1048918;28;4248;-46
2022/05/08 02:43:28;;;;;;;;;;;;;;;;;;1047724;28;2970;-48
2022/05/08 02:43:59;;;;;;;;;;;;;;;;;;1049359;28;3789;-46
2022/05/08 02:44:29;;;;;;;;;;;;;;;;;;1048241;28;4078;-46
2022/05/08 02:44:59;;;;;;;;;;;;;;;;;;1050061;28;4336;-46
2022/05/08 02:45:30;;;;;;;;;;;;;;;;;;1048488;28;3813;-48
2022/05/08 02:46:02;;;;;;;;;;;;;;;;;;1047831;28;4240;-50
2022/05/08 02:46:32;;;;;;;;;;;;;;;;;;1049334;28;3882;-48
2022/05/08 02:47:09;;;;;;;;;;;;;;;;;;1048957;28;4229;-48
2022/05/08 02:47:40;;;;;;;;;;;;;;;;;;1049856;28;2189;-45
2022/05/08 02:48:11;;;;;;;;;;;;;;;;;;1046670;28;4563;-48
2022/05/08 02:48:41;;;;;;;;;;;;;;;;;;1049399;28;3862;-48
2022/05/08 02:49:11;;;;;;;;;;;;;;;;;;1043314;28;3919;-48
2022/05/08 02:49:41;;;;;;;;;;;;;;;;;;1045158;28;3680;-48
2022/05/08 02:50:12;;;;;;;;;;;;;;;;;;1041690;28;3952;-47
2022/05/08 02:50:42;;;;;;;;;;;;;;;;;;1045383;28;3843;-47
2022/05/08 02:51:18;;;;;;;;;;;;;;;;;;1048389;28;3873;-49
2022/05/08 02:51:49;;;;;;;;;;;;;;;;;;1048933;28;3870;-46
2022/05/08 02:52:19;;;;;;;;;;;;;;;;;;1049673;28;3956;-46
2022/05/08 02:52:49;;;;;;;;;;;;;;;;;;1045078;28;4187;-47
2022/05/08 02:53:20;;;;;;;;;;;;;;;;;;1044450;28;3849;-49
2022/05/08 02:53:51;;;;;;;;;;;;;;;;;;1044163;28;3992;-49
2022/05/08 02:54:21;;;;;;;;;;;;;;;;;;1044542;28;3852;-46
2022/05/08 02:54:51;;;;;;;;;;;;;;;;;;1048337;28;4298;-47
2022/05/08 02:58:38;;;;;;;;;;;;;;;;;;1044729;28;3842;-49
2022/05/08 02:59:10;;;;;;;;;;;;;;;;;;1047359;28;4015;-49
2022/05/08 02:59:40;;;;;;;;;;;;;;;;;;1049288;28;3989;-48
2022/05/08 03:00:11;;;;;;;;;;;;;;;;;;1047873;28;4166;-47
2022/05/08 03:00:42;;;;;;;;;;;;;;;;;;1049236;28;2872;-47
2022/05/08 03:01:12;;;;;;;;;;;;;;;;;;1047267;28;3825;-46
2022/05/08 03:01:43;;;;;;;;;;;;;;;;;;1048381;28;3821;-49
2022/05/08 03:02:13;;;;;;;;;;;;;;;;;;1049197;28;3796;-47
2022/05/08 03:02:43;;;;;;;;;;;;;;;;;;1049808;28;1974;-47
2022/05/08 03:03:14;;;;;;;;;;;;;;;;;;1049074;28;3901;-47
2022/05/08 03:03:44;;;;;;;;;;;;;;;;;;1049705;28;3905;-48
2022/05/08 03:04:15;;;;;;;;;;;;;;;;;;1047715;28;3509;-48
2022/05/08 03:04:45;;;;;;;;;;;;;;;;;;1049830;28;3884;-49
2022/05/08 03:05:16;;;;;;;;;;;;;;;;;;1047877;28;3780;-48
2022/05/08 03:05:47;;;;;;;;;;;;;;;;;;1049090;28;3886;-45
2022/05/08 03:06:17;;;;;;;;;;;;;;;;;;1049089;28;3851;-48
2022/05/08 03:06:47;;;;;;;;;;;;;;;;;;1048586;28;3900;-47
2022/05/08 03:07:18;;;;;;;;;;;;;;;;;;1047838;28;3917;-46
2022/05/08 03:07:48;;;;;;;;;;;;;;;;;;1048630;28;3883;-49
2022/05/08 03:08:19;;;;;;;;;;;;;;;;;;1049000;28;3011;-46
2022/05/08 03:08:50;;;;;;;;;;;;;;;;;;1049016;28;3943;-47
2022/05/08 03:09:21;;;;;;;;;;;;;;;;;;1048931;28;3004;-46
2022/05/08 03:09:51;;;;;;;;;;;;;;;;;;1048435;28;3937;-50
2022/05/08 03:10:22;;;;;;;;;;;;;;;;;;1046679;28;4164;-50
2022/05/08 03:11:41;;;;;;;;;;;;;;;;;;1049283;28;2456;-47
2022/05/08 03:12:11;;;;;;;;;;;;;;;;;;1047478;28;3890;-47
2022/05/08 03:12:42;;;;;;;;;;;;;;;;;;1050040;28;1966;-47
2022/05/08 03:13:12;;;;;;;;;;;;;;;;;;1048085;28;4056;-46
2022/05/08 03:13:42;;;;;;;;;;;;;;;;;;1047950;28;3386;-49
2022/05/08 03:14:12;;;;;;;;;;;;;;;;;;1047802;28;4009;-47
2022/05/08 03:14:43;;;;;;;;;;;;;;;;;;1050619;28;2193;-46
2022/05/08 03:15:13;;;;;;;;;;;;;;;;;;1047899;28;3746;-48
2022/05/08 03:15:43;;;;;;;;;;;;;;;;;;1048144;28;3755;-48
2022/05/08 03:16:14;;;;;;;;;;;;;;;;;;1048222;28;3967;-47
2022/05/08 03:16:44;;;;;;;;;;;;;;;;;;1047512;28;2978;-47
2022/05/08 03:17:21;;;;;;;;;;;;;;;;;;1048984;28;3784;-50
2022/05/08 03:17:51;;;;;;;;;;;;;;;;;;1049080;28;4052;-48
2022/05/08 03:18:34;;;;;;;;;;;;;;;;;;1049032;28;3119;-48
2022/05/08 03:19:13;;;;;;;;;;;;;;;;;;1039953;28;3805;-48
2022/05/08 03:19:43;;;;;;;;;;;;;;;;;;1036899;28;1754;-47
2022/05/08 03:20:13;;;;;;;;;;;;;;;;;;1036233;28;3906;-48
2022/05/08 03:20:44;;;;;;;;;;;;;;;;;;1033527;28;4046;-49
2022/05/08 03:21:14;;;;;;;;;;;;;;;;;;1035141;28;3914;-47
2022/05/08 03:21:48;;;;;;;;;;;;;;;;;;1040887;28;3854;-45
2022/05/08 03:22:18;;;;;;;;;;;;;;;;;;1039449;28;3747;-47
2022/05/08 03:22:49;;;;;;;;;;;;;;;;;;1041448;28;4405;-46
2022/05/08 03:23:19;;;;;;;;;;;;;;;;;;1041149;28;3844;-47
2022/05/08 03:23:49;;;;;;;;;;;;;;;;;;1040321;28;4259;-47
2022/05/08 03:24:19;;;;;;;;;;;;;;;;;;1039555;28;3806;-45
2022/05/08 03:24:50;;;;;;;;;;;;;;;;;;1039961;28;4193;-46
2022/05/08 03:25:20;;;;;;;;;;;;;;;;;;1039163;28;3977;-47
2022/05/08 03:25:50;;;;;;;;;;;;;;;;;;1039792;28;3887;-47
2022/05/08 03:26:20;;;;;;;;;;;;;;;;;;1041475;28;3867;-49
2022/05/08 03:26:51;;;;;;;;;;;;;;;;;;1040502;28;4064;-49
2022/05/08 03:27:21;;;;;;;;;;;;;;;;;;1041198;28;3619;-47
2022/05/08 03:27:53;;;;;;;;;;;;;;;;;;1037494;28;4402;-49
2022/05/08 03:28:23;;;;;;;;;;;;;;;;;;1039472;28;3755;-45
2022/05/08 03:28:54;;;;;;;;;;;;;;;;;;1040171;28;3788;-49
2022/05/08 03:29:25;;;;;;;;;;;;;;;;;;1040790;28;3824;-49
2022/05/08 03:29:55;;;;;;;;;;;;;;;;;;1040361;28;3886;-47
2022/05/08 03:30:32;;;;;;;;;;;;;;;;;;1039888;28;3722;-46
2022/05/08 03:31:02;;;;;;;;;;;;;;;;;;1040776;28;3948;-45
2022/05/08 03:31:32;;;;;;;;;;;;;;;;;;1039638;28;3816;-47
2022/05/08 03:32:03;;;;;;;;;;;;;;;;;;1041879;28;4394;-47
2022/05/08 03:32:34;;;;;;;;;;;;;;;;;;1039889;28;4011;-50
2022/05/08 03:33:06;;;;;;;;;;;;;;;;;;1041801;28;4239;-47
2022/05/08 03:33:37;;;;;;;;;;;;;;;;;;1040827;28;2825;-48
2022/05/08 03:34:07;;;;;;;;;;;;;;;;;;1040096;28;4024;-47
2022/05/08 03:34:38;;;;;;;;;;;;;;;;;;1039431;28;4183;-48
2022/05/08 03:35:08;;;;;;;;;;;;;;;;;;1040463;28;3887;-48
2022/05/08 03:35:39;;;;;;;;;;;;;;;;;;1043371;28;4068;-48
2022/05/08 03:36:12;;;;;;;;;;;;;;;;;;1042186;28;3925;-48
2022/05/08 03:36:43;;;;;;;;;;;;;;;;;;1041453;28;3007;-46
2022/05/08 03:37:14;;;;;;;;;;;;;;;;;;1040605;28;3801;-48
2022/05/08 03:37:44;;;;;;;;;;;;;;;;;;1040280;28;4080;-46
2022/05/08 03:38:14;;;;;;;;;;;;;;;;;;1041126;28;3617;-47
2022/05/08 03:38:45;;;;;;;;;;;;;;;;;;1039414;28;4012;-46
2022/05/08 03:39:16;;;;;;;;;;;;;;;;;;1040639;28;3635;-47
2022/05/08 03:39:46;;;;;;;;;;;;;;;;;;1040981;28;3966;-47
2022/05/08 03:40:16;;;;;;;;;;;;;;;;;;1041772;28;2062;-48
2022/05/08 03:40:46;;;;;;;;;;;;;;;;;;1041047;28;3915;-46
2022/05/08 03:41:17;;;;;;;;;;;;;;;;;;1040634;28;3825;-47
2022/05/08 03:41:47;;;;;;;;;;;;;;;;;;1040682;28;4167;-46
2022/05/08 03:42:18;;;;;;;;;;;;;;;;;;1042481;28;1599;-48
2022/05/08 03:42:48;;;;;;;;;;;;;;;;;;1040434;28;4880;-46
2022/05/08 03:43:18;;;;;;;;;;;;;;;;;;1040758;28;3960;-48
2022/05/08 03:43:50;;;;;;;;;;;;;;;;;;1040154;28;3923;-45